Time;durP1;ratioP1;P1;durP2;ratioP2;P2;SDS_P1;SDS_P2;PMS_P1;PMS_P2;Temp;Humidity;BMP_temperature;BMP_pressure;BME280_temperature;BME280_humidity;BME280_pressure;Samples;Min_cycle;Max_cycle;Signal;HPM_P1;HPM_P2
2022/07/03 00:01:59;;;;;;;3.55;1.20;;;19.90;99.90;;;;;;7359118;19;107344;-95
2022/07/03 00:05:02;;;;;;;4.18;1.20;;;19.80;99.90;;;;;;7362078;19;108923;-94
2022/07/03 00:07:56;;;;;;;2.80;0.97;;;19.80;99.90;;;;;;7349121;19;107168;-90
2022/07/03 00:10:23;;;;;;;2.92;1.10;;;19.70;99.90;;;;;;7348584;19;107403;-90
2022/07/03 00:12:50;;;;;;;3.83;1.42;;;19.70;99.90;;;;;;7348801;19;108430;-90
2022/07/03 00:15:18;;;;;;;3.08;1.27;;;19.70;99.90;;;;;;7348256;19;107467;-90
2022/07/03 00:17:45;;;;;;;2.90;1.23;;;19.70;99.90;;;;;;7349696;19;107886;-90
2022/07/03 00:20:12;;;;;;;4.00;1.13;;;19.60;99.90;;;;;;7354452;19;108208;-90
2022/07/03 00:22:43;;;;;;;2.08;1.00;;;19.60;99.90;;;;;;7347522;19;107693;-89
2022/07/03 00:25:12;;;;;;;3.22;1.08;;;19.60;99.90;;;;;;7347972;19;110373;-89
2022/07/03 00:27:45;;;;;;;1.45;0.90;;;19.60;99.90;;;;;;7348700;19;107129;-91
2022/07/03 00:30:12;;;;;;;3.90;1.00;;;19.60;99.90;;;;;;7349249;19;107219;-91
2022/07/03 00:32:42;;;;;;;2.78;1.13;;;19.50;99.90;;;;;;7348494;19;107836;-91
2022/07/03 00:35:15;;;;;;;2.85;0.90;;;19.50;99.90;;;;;;7347518;19;107641;-91
2022/07/03 00:37:43;;;;;;;4.43;1.13;;;19.50;99.90;;;;;;7347529;19;107410;-90
2022/07/03 00:40:11;;;;;;;2.30;1.10;;;19.50;99.90;;;;;;7347660;19;107396;-90
2022/07/03 00:42:41;;;;;;;3.65;1.05;;;19.40;99.90;;;;;;7352386;19;107231;-91
2022/07/03 00:45:09;;;;;;;3.63;0.80;;;19.40;99.90;;;;;;7347142;19;107855;-92
2022/07/03 00:47:39;;;;;;;1.77;0.77;;;19.40;99.90;;;;;;7349216;19;107369;-90
2022/07/03 00:50:08;;;;;;;2.72;1.08;;;19.30;99.90;;;;;;7348198;19;107831;-90
2022/07/03 00:52:38;;;;;;;3.63;1.00;;;19.30;99.90;;;;;;7348617;19;108244;-90
2022/07/03 00:55:08;;;;;;;2.30;0.98;;;19.30;99.90;;;;;;7346751;19;107073;-91
2022/07/03 00:57:41;;;;;;;1.73;0.90;;;19.20;99.90;;;;;;7347456;19;108148;-91
2022/07/03 01:00:09;;;;;;;2.10;0.80;;;19.20;99.90;;;;;;7345682;19;108000;-91
2022/07/03 01:02:48;;;;;;;3.60;0.90;;;19.20;99.90;;;;;;7348009;19;107493;-91
2022/07/03 01:05:24;;;;;;;2.22;1.00;;;19.10;99.90;;;;;;7353873;19;107941;-91
2022/07/03 01:08:19;;;;;;;5.53;1.00;;;19.10;99.90;;;;;;7344802;19;107757;-91
2022/07/03 01:10:49;;;;;;;2.45;0.98;;;19.00;99.90;;;;;;7347150;19;107094;-91
2022/07/03 01:13:49;;;;;;;5.28;1.00;;;19.00;99.90;;;;;;7345522;19;108098;-90
2022/07/03 01:16:38;;;;;;;4.45;1.20;;;18.90;99.90;;;;;;7344190;19;107451;-91
2022/07/03 01:19:27;;;;;;;3.60;1.20;;;18.80;99.90;;;;;;7346188;19;107654;-92
2022/07/03 01:22:21;;;;;;;3.72;1.10;;;18.70;99.90;;;;;;7344441;19;108304;-91
2022/07/03 01:24:57;;;;;;;3.38;1.05;;;18.60;99.90;;;;;;7345897;19;107289;-91
2022/07/03 01:27:39;;;;;;;2.70;1.30;;;18.50;99.90;;;;;;7346159;19;107369;-91
2022/07/03 01:30:11;;;;;;;2.03;1.25;;;18.60;99.90;;;;;;7351177;19;109281;-91
2022/07/03 01:32:43;;;;;;;2.15;1.20;;;18.50;99.90;;;;;;7346661;19;108019;-91
2022/07/03 01:35:15;;;;;;;7.03;1.40;;;18.50;99.90;;;;;;7345240;19;108403;-91
2022/07/03 01:37:44;;;;;;;3.22;1.20;;;18.50;99.90;;;;;;7347374;19;107332;-91
2022/07/03 01:40:14;;;;;;;3.42;1.60;;;18.50;99.90;;;;;;7346997;19;107088;-91
2022/07/03 01:42:44;;;;;;;3.13;1.30;;;18.50;99.90;;;;;;7347215;19;107886;-91
2022/07/03 01:45:14;;;;;;;2.78;1.40;;;18.40;99.90;;;;;;7348083;19;108347;-91
2022/07/03 01:47:46;;;;;;;1.85;1.20;;;18.40;99.90;;;;;;7346175;19;107878;-91
2022/07/03 01:50:15;;;;;;;3.25;1.33;;;18.40;99.90;;;;;;7346476;19;107596;-92
2022/07/03 01:52:49;;;;;;;5.82;1.20;;;18.40;99.90;;;;;;7351616;19;107887;-91
2022/07/03 01:55:19;;;;;;;3.25;1.30;;;18.40;99.90;;;;;;7345392;19;107175;-91
2022/07/03 01:57:50;;;;;;;1.63;1.17;;;18.30;99.90;;;;;;7345866;19;107243;-92
2022/07/03 02:00:22;;;;;;;2.38;1.20;;;18.30;99.90;;;;;;7347728;19;107084;-91
2022/07/03 02:02:59;;;;;;;2.85;1.30;;;18.30;99.90;;;;;;7346994;19;109009;-92
2022/07/03 02:05:43;;;;;;;4.07;1.63;;;18.20;99.90;;;;;;7346087;19;107318;-89
2022/07/03 02:08:37;;;;;;;2.35;1.40;;;18.20;99.90;;;;;;7343753;19;108067;-91
2022/07/03 02:11:19;;;;;;;2.67;1.50;;;18.20;99.90;;;;;;7342924;19;108560;-91
2022/07/03 02:13:47;;;;;;;4.18;1.50;;;18.10;99.90;;;;;;7350339;19;107802;-91
2022/07/03 02:16:20;;;;;;;3.22;1.60;;;18.10;99.90;;;;;;7345176;19;108022;-92
2022/07/03 02:19:14;;;;;;;2.55;1.60;;;18.10;99.90;;;;;;7345780;19;107330;-91
2022/07/03 02:21:50;;;;;;;3.60;1.58;;;18.10;99.90;;;;;;7346367;19;107438;-91
2022/07/03 02:24:22;;;;;;;6.20;1.80;;;18.00;99.90;;;;;;7344809;19;108051;-91
2022/07/03 02:26:56;;;;;;;4.30;1.65;;;18.00;99.90;;;;;;7347048;19;107205;-91
2022/07/03 02:29:34;;;;;;;3.70;1.60;;;17.90;99.90;;;;;;7344778;19;107387;-90
2022/07/03 02:32:06;;;;;;;3.53;1.60;;;17.90;99.90;;;;;;7344436;19;107919;-91
2022/07/03 02:34:35;;;;;;;2.80;1.73;;;17.90;99.90;;;;;;7345788;19;107363;-91
2022/07/03 02:37:12;;;;;;;3.30;1.70;;;18.00;99.90;;;;;;7347565;19;107996;-90
2022/07/03 02:40:09;;;;;;;3.17;1.98;;;17.90;99.90;;;;;;7344413;19;107355;-91
2022/07/03 02:42:49;;;;;;;2.40;1.73;;;17.90;99.90;;;;;;7344995;19;107178;-91
2022/07/03 02:45:19;;;;;;;3.35;1.65;;;17.90;99.90;;;;;;7345384;19;107833;-91
2022/07/03 02:48:12;;;;;;;3.80;1.83;;;17.80;99.90;;;;;;7346144;19;107379;-91
2022/07/03 02:50:41;;;;;;;6.90;1.55;;;17.80;99.90;;;;;;7345020;19;108374;-91
2022/07/03 02:53:20;;;;;;;3.78;1.60;;;17.80;99.90;;;;;;7343949;19;107949;-91
2022/07/03 02:55:47;;;;;;;1.75;1.55;;;17.80;99.90;;;;;;7345156;19;107707;-92
2022/07/03 02:58:44;;;;;;;3.60;1.80;;;17.70;99.90;;;;;;7343725;19;107285;-92
2022/07/03 03:01:25;;;;;;;3.67;1.63;;;17.70;99.90;;;;;;7348365;19;108078;-91
2022/07/03 03:04:11;;;;;;;5.75;1.70;;;17.60;99.90;;;;;;7344389;19;107084;-92
2022/07/03 03:06:47;;;;;;;2.50;1.70;;;17.60;99.90;;;;;;7344328;19;107412;-92
2022/07/03 03:09:24;;;;;;;3.13;1.73;;;17.60;99.90;;;;;;7343530;19;107286;-91
2022/07/03 03:11:55;;;;;;;3.72;2.00;;;17.60;99.90;;;;;;7345459;19;107006;-91
2022/07/03 03:14:30;;;;;;;4.13;1.90;;;17.50;99.90;;;;;;7344540;19;108109;-91
2022/07/03 03:16:59;;;;;;;4.72;2.08;;;17.50;99.90;;;;;;7342483;19;106920;-89
2022/07/03 03:19:26;;;;;;;3.22;1.58;;;17.50;99.90;;;;;;7345658;19;107504;-91
2022/07/03 03:22:12;;;;;;;3.85;1.90;;;17.50;99.90;;;;;;7343367;19;108276;-90
2022/07/03 03:24:40;;;;;;;2.97;2.00;;;17.50;99.90;;;;;;7357610;19;107285;-91
2022/07/03 03:27:08;;;;;;;6.30;2.20;;;17.50;99.90;;;;;;7351578;19;108263;-91
2022/07/03 03:29:36;;;;;;;4.38;2.05;;;17.40;99.90;;;;;;7350907;19;107024;-91
2022/07/03 03:32:04;;;;;;;2.42;1.88;;;17.40;99.90;;;;;;7350209;19;107186;-91
2022/07/03 03:34:32;;;;;;;3.13;2.00;;;17.40;99.90;;;;;;7351418;19;107194;-91
2022/07/03 03:37:00;;;;;;;4.32;2.20;;;17.40;99.90;;;;;;7350435;19;109036;-91
2022/07/03 03:39:28;;;;;;;5.60;1.80;;;17.30;99.90;;;;;;7349607;19;107257;-90
2022/07/03 03:41:55;;;;;;;5.68;1.98;;;17.20;99.90;;;;;;7351445;19;108588;-91
2022/07/03 03:44:22;;;;;;;4.13;1.92;;;17.20;99.90;;;;;;7351141;19;107556;-91
2022/07/03 03:46:51;;;;;;;3.40;2.00;;;17.30;99.90;;;;;;7355192;19;107115;-91
2022/07/03 03:49:18;;;;;;;2.80;1.70;;;17.30;99.90;;;;;;7349888;19;107268;-91
2022/07/03 03:51:46;;;;;;;5.82;2.40;;;17.30;99.90;;;;;;7350375;19;107189;-91
2022/07/03 03:54:13;;;;;;;4.25;2.10;;;17.30;99.90;;;;;;7349372;19;108225;-91
2022/07/03 03:56:41;;;;;;;4.50;1.92;;;17.40;99.90;;;;;;7349640;19;106948;-91
2022/07/03 03:59:08;;;;;;;4.05;2.00;;;17.40;99.90;;;;;;7351630;19;107188;-91
2022/07/03 04:01:50;;;;;;;3.42;2.08;;;17.40;99.90;;;;;;7347301;19;108001;-91
2022/07/03 04:04:18;;;;;;;3.75;2.20;;;17.40;99.90;;;;;;7349209;19;107263;-91
2022/07/03 04:06:46;;;;;;;5.32;2.10;;;17.40;99.90;;;;;;7349834;19;106807;-91
2022/07/03 04:09:13;;;;;;;3.42;2.03;;;17.40;99.90;;;;;;7354805;19;107894;-93
2022/07/03 04:11:40;;;;;;;4.65;1.88;;;17.40;99.90;;;;;;7349880;19;107629;-91
2022/07/03 04:14:12;;;;;;;4.35;2.03;;;17.40;99.90;;;;;;7349403;19;108360;-92
2022/07/03 04:16:53;;;;;;;4.32;1.77;;;17.40;99.90;;;;;;7348447;19;107422;-91
2022/07/03 04:19:22;;;;;;;3.97;2.22;;;17.40;99.90;;;;;;7351227;19;107386;-91
2022/07/03 04:21:51;;;;;;;7.10;1.83;;;17.50;99.90;;;;;;7349694;19;108205;-92
2022/07/03 04:24:22;;;;;;;3.47;2.00;;;17.50;99.90;;;;;;7349107;19;107062;-92
2022/07/03 04:26:53;;;;;;;3.83;1.90;;;17.50;99.90;;;;;;7350180;19;107477;-91
2022/07/03 04:29:22;;;;;;;9.75;2.42;;;17.50;99.90;;;;;;7353636;19;108127;-91
2022/07/03 04:31:51;;;;;;;3.67;2.10;;;17.50;99.90;;;;;;7348136;19;107199;-92
2022/07/03 04:34:20;;;;;;;4.88;2.15;;;17.50;99.90;;;;;;7347695;19;108732;-92
2022/07/03 04:37:00;;;;;;;4.38;1.88;;;17.50;99.90;;;;;;7346684;19;107408;-91
2022/07/03 04:39:41;;;;;;;3.35;1.80;;;17.60;99.90;;;;;;7345249;19;107246;-92
2022/07/03 04:42:22;;;;;;;4.55;1.88;;;17.50;99.90;;;;;;7346173;19;107825;-91
2022/07/03 04:44:50;;;;;;;3.35;1.90;;;17.50;99.90;;;;;;7348310;19;107361;-93
2022/07/03 04:47:18;;;;;;;3.28;1.90;;;17.50;99.90;;;;;;7351071;19;109481;-93
2022/07/03 04:49:45;;;;;;;3.97;1.77;;;17.50;99.90;;;;;;7350669;19;111424;-93
2022/07/03 04:52:13;;;;;;;3.58;1.90;;;17.60;99.90;;;;;;7355887;19;110591;-93
2022/07/03 04:54:40;;;;;;;3.85;2.00;;;17.60;99.90;;;;;;7350108;19;111991;-92
2022/07/03 04:57:07;;;;;;;5.43;1.60;;;17.60;99.90;;;;;;7349263;19;109402;-93
2022/07/03 04:59:35;;;;;;;4.30;2.08;;;17.60;99.90;;;;;;7350323;19;109929;-92
2022/07/03 05:02:02;;;;;;;2.47;1.92;;;17.60;99.90;;;;;;7350488;19;109848;-92
2022/07/03 05:04:29;;;;;;;7.75;2.10;;;17.70;99.90;;;;;;7349480;19;109313;-94
2022/07/03 05:06:56;;;;;;;4.20;1.75;;;17.70;99.90;;;;;;7349509;19;110245;-93
2022/07/03 05:09:24;;;;;;;8.32;2.03;;;17.70;99.90;;;;;;7349707;19;110200;-93
2022/07/03 05:11:51;;;;;;;5.18;1.70;;;17.80;99.90;;;;;;7350654;19;110916;-93
2022/07/03 05:14:18;;;;;;;3.35;1.85;;;17.80;99.90;;;;;;7357596;19;110716;-92
2022/07/03 05:16:45;;;;;;;3.85;1.80;;;17.90;99.90;;;;;;7351119;19;108050;-92
2022/07/03 05:19:13;;;;;;;3.20;1.50;;;17.90;99.90;;;;;;7349902;19;109663;-93
2022/07/03 05:21:40;;;;;;;5.38;1.65;;;17.90;99.90;;;;;;7349291;19;108937;-93
2022/07/03 05:24:07;;;;;;;2.75;1.55;;;17.90;99.90;;;;;;7350638;19;107508;-93
2022/07/03 05:26:38;;;;;;;4.43;1.73;;;18.00;99.90;;;;;;7347472;19;111176;-91
2022/07/03 05:29:06;;;;;;;4.03;1.35;;;18.00;99.90;;;;;;7348122;19;111442;-93
2022/07/03 05:31:33;;;;;;;2.75;1.38;;;18.00;99.90;;;;;;7349389;19;109725;-93
2022/07/03 05:34:00;;;;;;;2.85;1.20;;;18.10;99.90;;;;;;7348892;19;110563;-93
2022/07/03 05:36:27;;;;;;;2.35;1.30;;;18.20;99.90;;;;;;7353923;19;111637;-93
2022/07/03 05:41:40;;;;;;;3.50;1.52;;;18.30;99.90;;;;;;7350388;19;110520;-93
2022/07/03 05:44:07;;;;;;;3.53;1.60;;;18.30;99.90;;;;;;7350161;19;110954;-92
2022/07/03 05:46:34;;;;;;;2.88;1.40;;;18.30;99.90;;;;;;7345768;19;111387;-93
2022/07/03 05:49:02;;;;;;;2.45;1.30;;;18.40;99.90;;;;;;7350604;19;107933;-94
2022/07/03 05:51:29;;;;;;;6.35;2.00;;;18.40;99.90;;;;;;7349012;19;107529;-93
2022/07/03 05:53:56;;;;;;;3.28;1.52;;;18.50;99.90;;;;;;7348709;19;109819;-94
2022/07/03 05:56:24;;;;;;;3.83;1.85;;;18.50;99.90;;;;;;7348727;19;111036;-93
2022/07/03 05:58:51;;;;;;;5.13;2.28;;;18.60;99.90;;;;;;7352741;19;110175;-94
2022/07/03 06:01:18;;;;;;;3.20;1.90;;;18.60;99.90;;;;;;7348562;19;111377;-94
2022/07/03 06:03:46;;;;;;;2.83;1.83;;;18.60;99.90;;;;;;7347271;19;110367;-92
2022/07/03 06:06:13;;;;;;;4.32;2.20;;;18.70;99.90;;;;;;7347248;19;110235;-94
2022/07/03 06:08:40;;;;;;;3.30;2.05;;;18.80;99.90;;;;;;7347306;19;111184;-95
2022/07/03 06:11:07;;;;;;;5.90;1.98;;;18.80;99.90;;;;;;7348164;19;109363;-93
2022/07/03 06:13:35;;;;;;;4.10;1.98;;;18.80;99.90;;;;;;7347695;19;110944;-93
2022/07/03 06:16:02;;;;;;;4.68;2.17;;;18.80;99.90;;;;;;7348996;19;110942;-93
2022/07/03 06:18:30;;;;;;;5.60;2.10;;;18.90;99.90;;;;;;7345794;19;110455;-93
2022/07/03 06:20:57;;;;;;;3.63;2.22;;;18.90;99.90;;;;;;7352085;19;109619;-93
2022/07/03 06:23:24;;;;;;;3.25;2.17;;;18.80;99.90;;;;;;7346424;19;109911;-95
2022/07/03 06:26:12;;;;;;;5.68;2.20;;;18.90;99.90;;;;;;7348140;19;108349;-94
2022/07/03 06:28:39;;;;;;;4.13;2.42;;;18.90;99.90;;;;;;7349567;19;111814;-94
2022/07/03 06:31:06;;;;;;;8.35;2.28;;;19.00;99.90;;;;;;7349392;19;110437;-94
2022/07/03 06:33:34;;;;;;;3.70;2.28;;;19.10;99.90;;;;;;7349214;19;110878;-94
2022/07/03 06:36:01;;;;;;;3.65;2.55;;;19.20;99.90;;;;;;7347423;19;107742;-93
2022/07/03 06:38:28;;;;;;;4.75;2.70;;;19.20;99.90;;;;;;7345420;19;109224;-94
2022/07/03 06:40:55;;;;;;;6.53;2.60;;;19.20;99.90;;;;;;7352957;19;110533;-95
2022/07/03 06:43:22;;;;;;;3.05;2.28;;;19.30;99.90;;;;;;7347341;19;108875;-94
2022/07/03 06:45:50;;;;;;;2.70;2.50;;;19.40;99.90;;;;;;7342437;19;110389;-93
2022/07/03 06:48:17;;;;;;;3.38;2.30;;;19.50;99.90;;;;;;7345188;19;110182;-94
2022/07/03 06:50:46;;;;;;;5.00;2.25;;;19.50;99.90;;;;;;7348698;19;109255;-93
2022/07/03 06:53:13;;;;;;;9.65;2.20;;;19.60;99.90;;;;;;7348286;19;109108;-93
2022/07/03 06:55:40;;;;;;;3.47;1.70;;;19.60;99.90;;;;;;7348915;19;111107;-94
2022/07/03 06:58:08;;;;;;;5.90;2.25;;;19.70;99.90;;;;;;7345935;19;109726;-92
2022/07/03 07:00:36;;;;;;;4.22;1.98;;;19.80;99.90;;;;;;7349090;19;107275;-92
2022/07/03 07:03:03;;;;;;;4.68;1.83;;;19.90;99.90;;;;;;7354257;19;110601;-93
2022/07/03 07:05:30;;;;;;;7.30;2.30;;;20.10;99.90;;;;;;7349709;19;111195;-95
2022/07/03 07:07:57;;;;;;;4.95;1.80;;;20.10;99.90;;;;;;7348981;19;110554;-94
2022/07/03 07:10:28;;;;;;;4.90;1.88;;;20.20;99.90;;;;;;7349266;19;110440;-95
2022/07/03 07:12:58;;;;;;;4.53;1.73;;;20.30;99.90;;;;;;7346200;19;111468;-92
2022/07/03 07:15:25;;;;;;;2.58;1.50;;;20.30;99.90;;;;;;7345059;19;109337;-91
2022/07/03 07:17:52;;;;;;;3.47;1.50;;;20.40;99.90;;;;;;7344654;19;107142;-91
2022/07/03 07:20:19;;;;;;;3.53;1.88;;;20.50;99.90;;;;;;7345579;19;108607;-90
2022/07/03 07:22:46;;;;;;;6.68;2.20;;;20.60;99.90;;;;;;7346296;19;110456;-92
2022/07/03 07:25:14;;;;;;;3.63;1.90;;;20.60;99.90;;;;;;7351889;19;110632;-92
2022/07/03 07:27:41;;;;;;;4.63;1.90;;;20.60;99.90;;;;;;7345449;19;111967;-91
2022/07/03 07:30:08;;;;;;;4.05;1.73;;;20.70;99.90;;;;;;7344291;19;110376;-91
2022/07/03 07:32:35;;;;;;;2.40;1.90;;;20.70;99.90;;;;;;7345404;19;107622;-92
2022/07/03 07:35:03;;;;;;;4.18;1.90;;;20.70;99.90;;;;;;7345627;19;111517;-91
2022/07/03 07:37:30;;;;;;;3.83;1.70;;;20.70;99.90;;;;;;7343695;19;109762;-90
2022/07/03 07:39:57;;;;;;;3.90;1.65;;;20.70;99.90;;;;;;7344077;19;109618;-91
2022/07/03 07:42:24;;;;;;;3.28;1.80;;;20.80;99.90;;;;;;7345478;19;110479;-91
2022/07/03 07:44:51;;;;;;;4.45;1.83;;;20.80;99.90;;;;;;7343679;19;110601;-90
2022/07/03 07:47:18;;;;;;;4.97;1.80;;;20.80;99.90;;;;;;7349177;19;110923;-91
2022/07/03 07:49:46;;;;;;;3.38;1.77;;;20.80;99.90;;;;;;7344465;19;107950;-91
2022/07/03 07:52:13;;;;;;;3.50;1.92;;;20.80;99.90;;;;;;7343329;19;110594;-92
2022/07/03 07:54:40;;;;;;;8.52;2.15;;;20.80;99.90;;;;;;7343407;19;107571;-91
2022/07/03 07:57:07;;;;;;;6.47;1.98;;;20.80;99.90;;;;;;7342718;19;112240;-91
2022/07/03 07:59:34;;;;;;;4.22;1.73;;;20.70;99.90;;;;;;7343332;19;109510;-91
2022/07/03 08:07:39;;;;;;;4.00;1.65;;;20.80;99.90;;;;;;7344710;19;107056;-90
2022/07/03 08:10:07;;;;;;;5.57;1.85;;;20.90;99.90;;;;;;7349324;19;111432;-91
2022/07/03 08:12:34;;;;;;;4.38;1.45;;;20.90;99.90;;;;;;7350053;19;107616;-91
2022/07/03 08:15:01;;;;;;;4.10;1.50;;;21.00;99.90;;;;;;7351413;19;111093;-90
2022/07/03 08:17:28;;;;;;;2.70;1.30;;;21.10;99.90;;;;;;7350867;19;107535;-91
2022/07/03 08:19:55;;;;;;;5.57;1.60;;;21.20;99.90;;;;;;7350141;19;108103;-91
2022/07/03 08:22:23;;;;;;;3.53;1.60;;;21.30;99.90;;;;;;7349955;19;109126;-90
2022/07/03 08:24:50;;;;;;;4.93;1.52;;;21.40;99.90;;;;;;7346547;19;110480;-89
2022/07/03 08:27:17;;;;;;;3.78;1.45;;;21.50;99.90;;;;;;7351448;19;110875;-91
2022/07/03 08:29:44;;;;;;;3.85;1.33;;;21.60;99.90;;;;;;7348863;19;108269;-91
2022/07/03 08:32:12;;;;;;;2.15;1.13;;;21.70;99.90;;;;;;7352421;19;107571;-90
2022/07/03 08:34:39;;;;;;;3.55;1.23;;;21.80;99.90;;;;;;7347612;19;108197;-91
2022/07/03 08:37:07;;;;;;;3.72;1.25;;;21.90;99.90;;;;;;7349244;19;110681;-90
2022/07/03 08:39:34;;;;;;;5.45;1.20;;;22.00;99.90;;;;;;7346065;19;111292;-91
2022/07/03 08:42:02;;;;;;;2.58;1.20;;;22.10;99.90;;;;;;7344246;19;110586;-91
2022/07/03 08:44:30;;;;;;;3.80;1.52;;;22.20;99.90;;;;;;7347048;19;110595;-92
2022/07/03 08:47:02;;;;;;;4.78;1.40;;;22.30;99.90;;;;;;7348945;19;109666;-91
2022/07/03 08:49:29;;;;;;;3.85;1.35;;;22.40;99.90;;;;;;7347692;19;108731;-89
2022/07/03 08:52:00;;;;;;;4.38;1.50;;;22.50;99.90;;;;;;7354195;19;110559;-92
2022/07/03 08:54:27;;;;;;;4.03;1.40;;;22.60;99.90;;;;;;7346917;19;111815;-90
2022/07/03 08:56:54;;;;;;;4.00;1.20;;;22.70;99.90;;;;;;7348263;19;108310;-92
2022/07/03 08:59:21;;;;;;;3.58;1.10;;;22.70;99.90;;;;;;7346466;19;110036;-90
2022/07/03 09:01:49;;;;;;;4.60;1.30;;;22.70;99.90;;;;;;7347912;19;109280;-90
2022/07/03 09:04:16;;;;;;;2.38;0.95;;;22.80;99.90;;;;;;7347930;19;108021;-90
2022/07/03 09:06:44;;;;;;;3.95;1.20;;;22.80;99.90;;;;;;7346991;19;110756;-91
2022/07/03 09:09:11;;;;;;;4.80;1.10;;;22.80;99.90;;;;;;7347126;19;108455;-90
2022/07/03 09:11:38;;;;;;;3.45;0.68;;;22.90;99.90;;;;;;7346781;19;110068;-90
2022/07/03 09:14:06;;;;;;;4.75;1.25;;;22.90;99.90;;;;;;7350706;19;109373;-91
2022/07/03 09:16:37;;;;;;;4.03;1.50;;;23.00;99.90;;;;;;7347907;19;107592;-91
2022/07/03 09:19:05;;;;;;;3.42;0.82;;;23.10;99.90;;;;;;7346114;19;110211;-90
2022/07/03 09:21:36;;;;;;;1.65;0.52;;;23.20;99.90;;;;;;7344835;19;112061;-91
2022/07/03 09:24:05;;;;;;;2.38;0.60;;;23.30;99.90;;;;;;7346627;19;112413;-91
2022/07/03 09:26:33;;;;;;;2.45;0.60;;;23.30;99.90;;;;;;7347204;19;109542;-92
2022/07/03 09:29:02;;;;;;;2.00;0.68;;;23.30;99.90;;;;;;7347665;19;110521;-91
2022/07/03 09:31:30;;;;;;;2.03;0.52;;;23.30;99.90;;;;;;7346937;19;107987;-92
2022/07/03 09:34:03;;;;;;;2.90;0.60;;;23.30;99.90;;;;;;7346028;19;110074;-92
2022/07/03 09:36:43;;;;;;;4.40;0.93;;;23.40;99.90;;;;;;7353042;19;111833;-92
2022/07/03 09:39:19;;;;;;;3.92;0.90;;;23.40;99.90;;;;;;7345937;19;109906;-92
2022/07/03 09:42:07;;;;;;;3.03;0.90;;;23.40;99.90;;;;;;7347856;19;111747;-91
2022/07/03 09:44:42;;;;;;;3.92;0.68;;;23.50;99.90;;;;;;7345990;19;106915;-91
2022/07/03 09:47:16;;;;;;;1.85;0.70;;;23.50;99.90;;;;;;7347780;19;110394;-91
2022/07/03 09:49:54;;;;;;;3.20;0.98;;;23.60;99.90;;;;;;7345464;19;112260;-90
2022/07/03 09:52:39;;;;;;;2.28;0.80;;;23.70;99.90;;;;;;7346797;19;109979;-92
2022/07/03 09:55:09;;;;;;;1.65;0.50;;;23.80;99.50;;;;;;7348436;19;111021;-89
2022/07/03 09:57:38;;;;;;;3.20;0.77;;;23.90;99.90;;;;;;7347540;19;108275;-91
2022/07/03 10:00:21;;;;;;;1.45;0.50;;;24.00;99.80;;;;;;7350412;19;110729;-91
2022/07/03 10:03:09;;;;;;;3.28;0.80;;;24.20;99.50;;;;;;7346101;19;111327;-90
2022/07/03 10:05:42;;;;;;;1.80;0.57;;;24.20;99.00;;;;;;7347754;19;110894;-92
2022/07/03 10:08:12;;;;;;;2.80;0.70;;;24.20;99.40;;;;;;7347488;19;108362;-92
2022/07/03 10:10:44;;;;;;;2.03;0.60;;;24.30;99.10;;;;;;7345039;19;112090;-91
2022/07/03 10:13:12;;;;;;;1.55;0.60;;;24.40;99.00;;;;;;7345221;19;110109;-91
2022/07/03 10:15:39;;;;;;;4.32;0.80;;;24.40;98.90;;;;;;7346444;19;108762;-91
2022/07/03 10:18:12;;;;;;;1.98;0.60;;;24.40;98.20;;;;;;7345499;19;111828;-91
2022/07/03 10:20:40;;;;;;;2.03;0.70;;;24.40;98.50;;;;;;7346724;19;110835;-91
2022/07/03 10:23:07;;;;;;;3.78;0.70;;;24.30;98.30;;;;;;7350570;19;109998;-90
2022/07/03 10:25:35;;;;;;;4.97;0.70;;;24.30;98.90;;;;;;7344068;19;108200;-91
2022/07/03 10:28:02;;;;;;;3.17;0.60;;;24.40;99.00;;;;;;7344391;19;108722;-90
2022/07/03 10:30:31;;;;;;;1.55;0.70;;;24.50;98.50;;;;;;7343439;19;111822;-91
2022/07/03 10:32:58;;;;;;;3.10;0.63;;;24.50;98.10;;;;;;7341398;19;110838;-92
2022/07/03 10:35:34;;;;;;;1.67;0.40;;;24.40;97.90;;;;;;7341193;19;108740;-91
2022/07/03 10:38:01;;;;;;;3.42;0.52;;;24.40;98.00;;;;;;7343926;19;111569;-90
2022/07/03 10:46:44;;;;;;;1.70;0.50;;;24.20;97.40;;;;;;7344497;19;107020;-90
2022/07/03 10:49:12;;;;;;;2.00;0.80;;;24.30;97.70;;;;;;7345048;19;111014;-90
2022/07/03 10:51:47;;;;;;;3.00;0.70;;;24.30;97.70;;;;;;7342818;19;111289;-89
2022/07/03 10:54:18;;;;;;;3.97;0.90;;;24.40;98.10;;;;;;7343846;19;110972;-91
2022/07/03 10:57:16;;;;;;;1.83;0.57;;;24.50;97.40;;;;;;7345697;19;110833;-90
2022/07/03 10:59:46;;;;;;;3.03;0.75;;;24.50;96.70;;;;;;7342574;19;109014;-92
2022/07/03 11:02:32;;;;;;;1.85;0.70;;;24.30;96.60;;;;;;7344182;19;108361;-91
2022/07/03 11:05:00;;;;;;;2.00;0.50;;;24.20;96.60;;;;;;7345021;19;108767;-93
2022/07/03 11:07:47;;;;;;;1.38;0.43;;;24.10;96.60;;;;;;7350455;19;112015;-92
2022/07/03 11:10:15;;;;;;;1.80;0.57;;;24.00;96.50;;;;;;7345602;19;109697;-91
2022/07/03 11:13:01;;;;;;;2.50;0.45;;;23.90;96.80;;;;;;7345045;19;112329;-93
2022/07/03 11:15:37;;;;;;;4.82;0.57;;;24.00;96.70;;;;;;7344765;19;110933;-92
2022/07/03 11:18:19;;;;;;;1.30;0.57;;;24.10;97.40;;;;;;7343972;19;111431;-90
2022/07/03 11:20:49;;;;;;;1.48;0.30;;;24.30;97.20;;;;;;7343673;19;109146;-91
2022/07/03 11:23:27;;;;;;;2.55;0.45;;;24.50;97.10;;;;;;7344988;19;107680;-92
2022/07/03 11:25:59;;;;;;;7.55;0.73;;;24.70;96.40;;;;;;7345696;19;109586;-92
2022/07/03 11:28:32;;;;;;;3.63;0.50;;;24.60;95.90;;;;;;7345775;19;110521;-91
2022/07/03 11:31:10;;;;;;;0.98;0.50;;;24.70;96.10;;;;;;7349375;19;109298;-91
2022/07/03 11:33:55;;;;;;;1.55;0.40;;;24.70;96.20;;;;;;7343410;19;111501;-92
2022/07/03 11:36:29;;;;;;;1.15;0.40;;;24.70;96.10;;;;;;7343672;19;110882;-91
2022/07/03 11:39:00;;;;;;;1.13;0.38;;;24.80;96.00;;;;;;7344578;19;110911;-92
2022/07/03 11:41:36;;;;;;;3.28;0.43;;;25.00;96.20;;;;;;7340369;19;106975;-90
2022/07/03 11:44:19;;;;;;;2.22;0.30;;;25.10;95.50;;;;;;7345144;19;107416;-91
2022/07/03 11:46:50;;;;;;;2.35;0.40;;;25.20;95.60;;;;;;7350378;19;107502;-91
2022/07/03 11:49:24;;;;;;;0.82;0.32;;;25.40;95.40;;;;;;7349627;19;107953;-90
2022/07/03 11:51:54;;;;;;;1.00;0.32;;;25.50;94.50;;;;;;7348354;19;107429;-90
2022/07/03 11:54:21;;;;;;;2.90;0.52;;;25.40;93.60;;;;;;7352496;19;108189;-90
2022/07/03 11:56:48;;;;;;;5.28;0.88;;;25.30;93.30;;;;;;7348317;19;107153;-90
2022/07/03 11:59:19;;;;;;;1.70;0.40;;;25.20;93.10;;;;;;7344546;19;108112;-90
2022/07/03 12:01:50;;;;;;;3.08;0.40;;;25.30;93.60;;;;;;7349132;19;107904;-90
2022/07/03 12:04:23;;;;;;;1.77;0.30;;;25.30;93.80;;;;;;7349184;19;107267;-89
2022/07/03 12:06:52;;;;;;;1.52;0.40;;;25.30;93.20;;;;;;7347773;19;107466;-91
2022/07/03 12:09:35;;;;;;;4.25;0.50;;;25.30;93.40;;;;;;7347856;19;108126;-90
2022/07/03 12:12:07;;;;;;;2.67;0.40;;;25.40;93.60;;;;;;7348501;19;107280;-90
2022/07/03 12:14:55;;;;;;;4.03;0.50;;;25.40;93.50;;;;;;7347419;19;107125;-89
2022/07/03 12:17:26;;;;;;;2.08;0.40;;;25.50;93.10;;;;;;7355262;19;107837;-91
2022/07/03 12:19:56;;;;;;;1.58;0.28;;;25.40;93.00;;;;;;7349298;19;107977;-91
2022/07/03 12:22:31;;;;;;;2.05;0.30;;;25.30;92.90;;;;;;7349477;19;107946;-90
2022/07/03 12:25:02;;;;;;;1.40;0.37;;;25.50;93.30;;;;;;7347665;19;107153;-90
2022/07/03 12:27:36;;;;;;;1.10;0.30;;;25.60;92.50;;;;;;7345185;19;109302;-90
2022/07/03 12:30:07;;;;;;;2.72;0.30;;;25.70;91.80;;;;;;7348924;19;107895;-90
2022/07/03 12:32:39;;;;;;;0.82;0.20;;;25.80;91.30;;;;;;7348751;19;106996;-89
2022/07/03 12:35:07;;;;;;;2.60;0.30;;;26.00;91.00;;;;;;7348550;19;107626;-91
2022/07/03 12:37:44;;;;;;;1.10;0.40;;;25.90;90.50;;;;;;7349046;19;108028;-90
2022/07/03 12:40:22;;;;;;;2.63;0.50;;;25.90;90.60;;;;;;7353836;19;107345;-90
2022/07/03 12:42:54;;;;;;;2.50;0.50;;;25.90;91.00;;;;;;7347619;19;107839;-90
2022/07/03 12:45:32;;;;;;;2.83;0.30;;;25.90;91.20;;;;;;7349417;19;107428;-90
2022/07/03 12:48:05;;;;;;;1.02;0.30;;;25.90;90.40;;;;;;7347613;19;107441;-90
2022/07/03 12:50:46;;;;;;;0.82;0.30;;;25.70;90.60;;;;;;7348022;19;108423;-90
2022/07/03 12:53:28;;;;;;;0.98;0.22;;;25.60;89.70;;;;;;7347478;19;107142;-89
2022/07/03 12:56:07;;;;;;;1.80;0.40;;;25.50;89.90;;;;;;7345819;19;107399;-90
2022/07/03 13:01:36;;;;;;;2.88;0.40;;;25.50;90.70;;;;;;7352016;19;107184;-90
2022/07/03 13:04:06;;;;;;;2.75;0.45;;;25.70;90.90;;;;;;7346507;19;108048;-90
2022/07/03 13:07:00;;;;;;;1.85;0.40;;;26.00;90.30;;;;;;7345135;19;106924;-91
2022/07/03 13:09:39;;;;;;;0.68;0.30;;;26.20;89.20;;;;;;7347645;19;108001;-90
2022/07/03 13:12:25;;;;;;;2.15;0.30;;;26.30;90.10;;;;;;7347793;19;108226;-91
2022/07/03 13:14:59;;;;;;;1.65;0.40;;;26.50;90.10;;;;;;7344721;19;107118;-92
2022/07/03 13:17:57;;;;;;;2.42;0.40;;;26.70;90.40;;;;;;7345252;19;107420;-92